createdAt,value
2018-01-13T01:36:48.424Z,52.29
2018-01-13T01:36:48.996Z,52.11
2018-01-13T01:36:49.595Z,52.39
2018-01-13T01:36:50.196Z,52.11
2018-01-13T01:36:50.795Z,52.29
2018-01-13T01:36:51.395Z,52.20
2018-01-13T01:36:51.994Z,52.39
2018-01-13T01:36:52.595Z,52.20
2018-01-13T01:37:46.079Z,51.92
2018-01-13T01:37:46.653Z,52.11
2018-01-13T01:37:47.249Z,51.82
2018-01-13T01:37:47.848Z,51.82
2018-01-13T01:37:48.448Z,51.82
2018-01-13T01:37:49.049Z,51.82
2018-01-13T01:37:49.648Z,51.92
2018-01-13T01:37:50.247Z,51.82
2018-01-13T01:38:43.733Z,52.01
2018-01-13T01:38:44.302Z,52.01
2018-01-13T01:38:44.901Z,52.01
2018-01-13T01:38:45.500Z,51.92
2018-01-13T01:38:46.101Z,52.01
2018-01-13T01:38:46.700Z,52.20
2018-01-13T01:38:47.300Z,51.92
2018-01-13T01:38:47.901Z,52.20
2018-01-13T01:39:42.404Z,52.01
2018-01-13T01:39:42.988Z,52.20
2018-01-13T01:39:43.576Z,51.92
2018-01-13T01:39:44.177Z,51.92
2018-01-13T01:39:44.776Z,51.82
2018-01-13T01:39:45.377Z,52.20
2018-01-13T01:39:45.975Z,51.82
2018-01-13T01:39:46.576Z,52.11
2018-01-13T01:40:41.082Z,52.20
2018-01-13T01:40:41.653Z,51.92
2018-01-13T01:40:42.255Z,52.11
2018-01-13T01:40:42.852Z,51.92
2018-01-13T01:40:43.453Z,51.92
2018-01-13T01:40:44.055Z,52.01
2018-01-13T01:40:44.652Z,51.92
2018-01-13T01:40:45.252Z,51.92
2018-01-13T01:41:38.733Z,51.92
2018-01-13T01:41:39.314Z,51.82
2018-01-13T01:41:39.905Z,52.11
2018-01-13T01:41:40.509Z,51.82
2018-01-13T01:41:41.105Z,52.11
2018-01-13T01:41:41.706Z,51.73
2018-01-13T01:41:42.317Z,51.92
2018-01-13T01:41:42.905Z,51.92
2018-01-13T01:42:36.386Z,51.82
2018-01-13T01:42:36.961Z,51.92
2018-01-13T01:42:37.557Z,52.01
2018-01-13T01:42:38.157Z,51.92
2018-01-13T01:42:38.756Z,51.82
2018-01-13T01:42:39.356Z,52.01
2018-01-13T01:42:39.958Z,51.92
2018-01-13T01:42:40.557Z,52.01
2018-01-13T01:43:35.062Z,51.82
2018-01-13T01:43:35.644Z,51.92
2018-01-13T01:43:36.233Z,51.92
2018-01-13T01:43:36.831Z,51.82
2018-01-13T01:43:37.433Z,52.01
2018-01-13T01:43:38.034Z,51.82
2018-01-13T01:43:38.636Z,51.92
2018-01-13T01:43:39.239Z,51.92
2018-01-13T01:44:33.739Z,51.92
2018-01-13T01:44:34.309Z,52.01
2018-01-13T01:44:34.909Z,52.01
2018-01-13T01:44:35.510Z,51.73
2018-01-13T01:44:36.108Z,51.92
2018-01-13T01:44:36.708Z,51.92
2018-01-13T01:44:37.307Z,52.01
2018-01-13T01:44:37.907Z,51.82
2018-01-13T01:45:32.411Z,51.82
2018-01-13T01:45:32.985Z,51.82
2018-01-13T01:45:33.585Z,52.01
2018-01-13T01:45:34.185Z,51.82
2018-01-13T01:45:34.784Z,51.92
2018-01-13T01:45:35.401Z,51.82
2018-01-13T01:45:35.984Z,51.82
2018-01-13T01:45:36.584Z,51.92
2018-01-13T01:46:31.088Z,52.01
2018-01-13T01:46:31.660Z,52.01
2018-01-13T01:46:32.260Z,52.20
2018-01-13T01:46:32.861Z,52.11
2018-01-13T01:46:33.475Z,51.92
2018-01-13T01:46:34.059Z,52.01
2018-01-13T01:46:34.660Z,52.01
2018-01-13T01:46:35.261Z,52.11
2018-01-13T01:47:28.743Z,52.11
2018-01-13T01:47:29.313Z,52.20
2018-01-13T01:47:29.914Z,52.11
2018-01-13T01:47:30.512Z,52.11
2018-01-13T01:47:31.113Z,52.11
2018-01-13T01:47:31.715Z,52.11
2018-01-13T01:47:32.312Z,52.11
2018-01-13T01:47:32.911Z,52.01
2018-01-13T01:48:26.392Z,52.01
2018-01-13T01:48:26.964Z,52.01
2018-01-13T01:48:27.564Z,51.92
2018-01-13T01:48:28.164Z,51.82
2018-01-13T01:48:28.765Z,51.92
2018-01-13T01:48:29.364Z,51.82
2018-01-13T01:48:29.964Z,51.82
2018-01-13T01:48:30.563Z,51.92
2018-01-13T01:49:25.068Z,52.39
2018-01-13T01:49:25.640Z,52.11
2018-01-13T01:49:26.239Z,52.29
2018-01-13T01:49:26.840Z,52.39
2018-01-13T01:49:27.439Z,52.01
2018-01-13T01:49:28.038Z,52.29
2018-01-13T01:49:28.638Z,52.39
2018-01-13T01:49:29.245Z,52.39
2018-01-13T01:50:22.721Z,52.11
2018-01-13T01:50:23.295Z,52.29
2018-01-13T01:50:23.893Z,52.20
2018-01-13T01:50:24.492Z,52.29
2018-01-13T01:50:25.093Z,52.20
2018-01-13T01:50:25.691Z,52.14
2018-01-13T01:50:26.292Z,52.29
2018-01-13T01:50:26.890Z,52.11
2018-01-13T01:51:21.396Z,53.15
2018-01-13T01:51:21.967Z,53.06
2018-01-13T01:51:22.566Z,53.15
2018-01-13T01:51:23.167Z,53.06
2018-01-13T01:51:23.770Z,52.87
2018-01-13T01:51:24.366Z,52.96
2018-01-13T01:51:24.965Z,52.87
2018-01-13T01:51:25.567Z,53.15
2018-01-13T01:52:20.072Z,53.08
2018-01-13T01:52:20.644Z,53.27
2018-01-13T01:52:21.245Z,53.06
2018-01-13T01:52:21.843Z,53.08
2018-01-13T01:52:22.446Z,53.18
2018-01-13T01:52:23.044Z,52.96
2018-01-13T01:52:23.648Z,53.15
2018-01-13T01:52:24.240Z,53.06
2018-01-13T01:53:17.722Z,53.53
2018-01-13T01:53:18.297Z,53.75
2018-01-13T01:53:18.895Z,53.44
2018-01-13T01:53:19.494Z,53.72
2018-01-13T01:53:20.096Z,53.72
2018-01-13T01:53:20.694Z,53.46
2018-01-13T01:53:21.294Z,53.44
2018-01-13T01:53:21.893Z,53.72
2018-01-13T01:54:16.399Z,54.67
2018-01-13T01:54:16.971Z,54.38
2018-01-13T01:54:17.569Z,54.28
2018-01-13T01:54:18.169Z,54.28
2018-01-13T01:54:18.769Z,54.28
2018-01-13T01:54:19.384Z,54.38
2018-01-13T01:54:19.968Z,54.28
2018-01-13T01:54:20.569Z,54.38
2018-01-13T01:55:15.080Z,54.41
2018-01-13T01:55:15.647Z,54.28
2018-01-13T01:55:16.246Z,54.19
2018-01-13T01:55:16.845Z,54.47
2018-01-13T01:55:17.446Z,54.38
2018-01-13T01:55:18.046Z,54.19
2018-01-13T01:55:18.645Z,54.47
2018-01-13T01:55:19.245Z,54.57
2018-01-13T01:56:12.728Z,54.19
2018-01-13T01:56:13.299Z,54.19
2018-01-13T01:56:13.898Z,54.47
2018-01-13T01:56:14.499Z,54.47
2018-01-13T01:56:15.143Z,54.38
2018-01-13T01:56:15.696Z,54.38
2018-01-13T01:56:16.298Z,54.28
2018-01-13T01:56:16.897Z,54.69
2018-01-13T01:57:10.380Z,54.76
2018-01-13T01:57:10.950Z,54.86
2018-01-13T01:57:11.550Z,54.88
2018-01-13T01:57:12.151Z,54.50
2018-01-13T01:57:12.750Z,54.32
2018-01-13T01:57:13.349Z,54.79
2018-01-13T01:57:13.949Z,54.76
2018-01-13T01:57:14.549Z,54.69
2018-01-13T01:58:08.030Z,54.98
2018-01-13T01:58:08.601Z,54.88
2018-01-13T01:58:09.201Z,54.88
2018-01-13T01:58:09.801Z,54.88
2018-01-13T01:58:10.402Z,54.98
2018-01-13T01:58:11.005Z,54.98
2018-01-13T01:58:11.601Z,54.98
2018-01-13T01:58:12.200Z,54.88
2018-01-13T01:59:05.681Z,55.45
2018-01-13T01:59:06.254Z,55.45
2018-01-13T01:59:06.854Z,55.55
2018-01-13T01:59:07.453Z,55.64
2018-01-13T01:59:08.055Z,55.36
2018-01-13T01:59:08.654Z,55.64
2018-01-13T01:59:09.256Z,55.55
2018-01-13T01:59:09.854Z,55.74
2018-01-13T02:00:03.332Z,56.21
2018-01-13T02:00:03.906Z,56.30
2018-01-13T02:00:04.505Z,55.93
2018-01-13T02:00:05.105Z,56.21
2018-01-13T02:00:05.705Z,56.30
2018-01-13T02:00:06.312Z,56.02
2018-01-13T02:00:06.905Z,56.02
2018-01-13T02:00:07.507Z,56.12
2018-01-13T02:01:00.986Z,56.97
2018-01-13T02:01:01.559Z,57.25
2018-01-13T02:01:02.158Z,57.25
2018-01-13T02:01:02.759Z,57.35
2018-01-13T02:01:03.358Z,57.35
2018-01-13T02:01:03.957Z,57.25
2018-01-13T02:01:04.560Z,57.06
2018-01-13T02:01:05.155Z,57.16
2018-01-13T02:01:58.724Z,57.92
2018-01-13T02:01:59.229Z,57.92
2018-01-13T02:01:59.827Z,57.64
2018-01-13T02:02:00.428Z,57.64
2018-01-13T02:02:01.026Z,57.60
2018-01-13T02:02:01.630Z,57.82
2018-01-13T02:02:02.237Z,57.82
2018-01-13T02:02:02.827Z,57.92
2018-01-13T02:02:57.311Z,58.39
2018-01-13T02:02:57.884Z,58.39
2018-01-13T02:02:58.483Z,58.39
2018-01-13T02:02:59.082Z,58.11
2018-01-13T02:02:59.682Z,58.29
2018-01-13T02:03:00.281Z,58.20
2018-01-13T02:03:00.885Z,58.20
2018-01-13T02:03:01.480Z,58.29
2018-01-13T02:03:54.963Z,58.58
2018-01-13T02:03:55.536Z,58.48
2018-01-13T02:03:56.140Z,58.58
2018-01-13T02:03:56.736Z,58.67
2018-01-13T02:03:57.335Z,58.67
2018-01-13T02:03:57.937Z,58.67
2018-01-13T02:03:58.536Z,58.58
2018-01-13T02:03:59.135Z,58.77
2018-01-13T02:04:52.615Z,59.05
2018-01-13T02:04:53.188Z,58.96
2018-01-13T02:04:53.789Z,58.96
2018-01-13T02:04:54.387Z,59.15
2018-01-13T02:04:54.989Z,59.15
2018-01-13T02:04:55.591Z,59.15
2018-01-13T02:04:56.188Z,59.15
2018-01-13T02:04:56.787Z,59.15
2018-01-13T02:05:50.267Z,59.25
2018-01-13T02:05:50.842Z,59.44
2018-01-13T02:05:51.442Z,59.15
2018-01-13T02:05:52.040Z,59.25
2018-01-13T02:05:52.640Z,59.25
2018-01-13T02:05:53.240Z,59.25
2018-01-13T02:05:53.839Z,59.44
2018-01-13T02:05:54.438Z,59.25
2018-01-13T02:06:47.924Z,59.91
2018-01-13T02:06:48.491Z,59.81
2018-01-13T02:06:49.090Z,59.72
2018-01-13T02:06:49.692Z,59.81
2018-01-13T02:06:50.293Z,59.91
2018-01-13T02:06:50.891Z,59.81
2018-01-13T02:06:51.491Z,59.91
2018-01-13T02:06:52.089Z,59.91
2018-01-13T02:07:45.574Z,60.67
2018-01-13T02:07:46.145Z,60.67
2018-01-13T02:07:46.743Z,60.67
2018-01-13T02:07:47.344Z,60.67
2018-01-13T02:07:47.946Z,60.86
2018-01-13T02:07:48.543Z,60.95
2018-01-13T02:07:49.142Z,61.05
2018-01-13T02:07:49.742Z,60.95
2018-01-13T02:08:43.740Z,61.99
2018-01-13T02:08:44.335Z,62.08
2018-01-13T02:08:44.906Z,61.80
2018-01-13T02:08:45.504Z,62.08
2018-01-13T02:08:46.105Z,61.80
2018-01-13T02:08:46.707Z,61.99
2018-01-13T02:08:47.305Z,61.90
2018-01-13T02:09:41.807Z,61.43
2018-01-13T02:09:42.392Z,61.43
2018-01-13T02:09:42.967Z,61.52
2018-01-13T02:09:43.567Z,62.08
2018-01-13T02:09:44.170Z,61.90
2018-01-13T02:09:44.766Z,61.90
2018-01-13T02:09:45.365Z,61.90
2018-01-13T02:09:45.967Z,61.80
2018-01-13T02:10:39.447Z,62.56
2018-01-13T02:10:40.020Z,62.56
2018-01-13T02:10:40.620Z,62.85
2018-01-13T02:10:41.220Z,63.04
2018-01-13T02:10:41.820Z,62.94
2018-01-13T02:10:42.428Z,62.94
2018-01-13T02:10:43.104Z,62.94
2018-01-13T02:10:43.617Z,62.94
2018-01-13T02:11:38.122Z,63.13
2018-01-13T02:11:38.700Z,63.04
2018-01-13T02:11:39.296Z,62.75
2018-01-13T02:11:39.894Z,63.32
2018-01-13T02:11:40.522Z,63.04
2018-01-13T02:11:41.131Z,63.13
2018-01-13T02:11:41.693Z,63.13
2018-01-13T02:11:42.292Z,63.13
2018-01-13T02:12:35.773Z,63.04
2018-01-13T02:12:36.347Z,62.94
2018-01-13T02:12:36.946Z,63.04
2018-01-13T02:12:37.578Z,63.42
2018-01-13T02:12:38.147Z,63.04
2018-01-13T02:12:38.747Z,63.04
2018-01-13T02:12:39.346Z,63.42
2018-01-13T02:12:39.945Z,63.42
2018-01-13T02:13:34.963Z,63.89
2018-01-13T02:13:35.533Z,63.70
2018-01-13T02:13:36.133Z,63.70
2018-01-13T02:13:36.733Z,63.70
2018-01-13T02:13:37.333Z,63.70
2018-01-13T02:13:37.933Z,63.70
2018-01-13T02:13:38.532Z,63.79
2018-01-13T02:14:32.616Z,63.42
2018-01-13T02:14:33.188Z,63.51
2018-01-13T02:14:33.786Z,63.51
2018-01-13T02:14:34.393Z,63.42
2018-01-13T02:14:34.984Z,63.70
2018-01-13T02:14:35.586Z,63.60
2018-01-13T02:14:36.186Z,63.60
2018-01-13T02:15:34.668Z,63.89
2018-01-13T02:15:35.243Z,63.79
2018-01-13T02:15:35.840Z,63.70
2018-01-13T02:15:37.311Z,63.79
2018-01-13T02:15:37.688Z,63.98
2018-01-13T02:15:38.284Z,63.98
2018-01-13T02:15:38.886Z,63.98
2018-01-13T02:16:32.424Z,65.41
2018-01-13T02:16:32.997Z,65.31
2018-01-13T02:16:33.596Z,65.50
2018-01-13T02:16:34.196Z,65.41
2018-01-13T02:16:34.794Z,65.50
2018-01-13T02:16:35.395Z,65.12
2018-01-13T02:16:35.996Z,65.97
2018-01-13T02:16:36.593Z,65.69
2018-01-13T02:17:30.176Z,66.64
2018-01-13T02:17:30.749Z,66.64
2018-01-13T02:17:31.348Z,66.64
2018-01-13T02:17:31.947Z,66.64
2018-01-13T02:17:32.548Z,66.64
2018-01-13T02:17:33.146Z,66.54
2018-01-13T02:17:33.746Z,66.64
2018-01-13T02:17:34.345Z,66.64
2018-01-13T02:18:27.829Z,65.97
2018-01-13T02:18:28.402Z,65.88
2018-01-13T02:18:29.000Z,66.26
2018-01-13T02:18:29.600Z,66.26
2018-01-13T02:18:30.202Z,65.88
2018-01-13T02:18:30.802Z,66.26
2018-01-13T02:18:31.400Z,66.26
2018-01-13T02:18:32.001Z,66.16
2018-01-13T02:19:25.481Z,65.78
2018-01-13T02:19:26.054Z,65.78
2018-01-13T02:19:26.651Z,66.16
2018-01-13T02:19:27.252Z,66.16
2018-01-13T02:19:27.855Z,66.26
2018-01-13T02:19:28.452Z,65.78
2018-01-13T02:19:29.051Z,66.26
2018-01-13T02:19:29.653Z,66.07
2018-01-13T02:20:24.156Z,65.97
2018-01-13T02:20:24.727Z,66.07
2018-01-13T02:20:25.327Z,65.69
2018-01-13T02:20:25.926Z,66.07
2018-01-13T02:20:26.526Z,66.07
2018-01-13T02:20:27.128Z,65.97
2018-01-13T02:20:27.728Z,65.69
2018-01-13T02:20:28.325Z,65.50
2018-01-13T02:21:22.830Z,66.26
2018-01-13T02:21:23.405Z,66.45
2018-01-13T02:21:24.010Z,66.45
2018-01-13T02:21:24.603Z,66.45
2018-01-13T02:21:25.203Z,66.45
2018-01-13T02:21:25.801Z,66.45
2018-01-13T02:21:26.404Z,66.45
2018-01-13T02:21:27.003Z,66.64
2018-01-13T02:22:21.507Z,66.74
2018-01-13T02:22:22.080Z,66.93
2018-01-13T02:22:22.681Z,66.54
2018-01-13T02:22:23.278Z,67.02
2018-01-13T02:22:23.878Z,67.02
2018-01-13T02:22:24.479Z,67.02
2018-01-13T02:22:25.078Z,67.11
2018-01-13T02:22:25.679Z,67.02
2018-01-13T02:23:19.167Z,67.02
2018-01-13T02:23:19.737Z,66.64
2018-01-13T02:23:20.331Z,66.93
2018-01-13T02:23:20.930Z,66.74
2018-01-13T02:23:21.531Z,67.02
2018-01-13T02:23:22.130Z,66.64
2018-01-13T02:23:22.730Z,66.64
2018-01-13T02:23:23.328Z,66.64
2018-01-13T02:24:16.812Z,67.30
2018-01-13T02:24:17.385Z,67.30
2018-01-13T02:24:17.983Z,67.02
2018-01-13T02:24:18.584Z,67.30
2018-01-13T02:24:19.181Z,67.30
2018-01-13T02:24:19.780Z,67.30
2018-01-13T02:24:20.382Z,67.30
2018-01-13T02:24:20.980Z,67.30
2018-01-13T02:25:15.486Z,66.64
2018-01-13T02:25:16.060Z,66.93
2018-01-13T02:25:16.659Z,67.02
2018-01-13T02:25:17.256Z,66.93
2018-01-13T02:25:17.857Z,66.54
2018-01-13T02:25:18.456Z,66.64
2018-01-13T02:25:19.056Z,67.02
2018-01-13T02:25:19.655Z,66.93
2018-01-13T02:26:14.161Z,67.30
2018-01-13T02:26:14.736Z,67.40
2018-01-13T02:26:15.333Z,67.21
2018-01-13T02:26:15.933Z,66.93
2018-01-13T02:26:16.532Z,67.11
2018-01-13T02:26:17.134Z,67.21
2018-01-13T02:26:17.732Z,67.11
2018-01-13T02:26:18.331Z,67.11
2018-01-13T02:27:12.836Z,67.02
2018-01-13T02:27:13.409Z,67.02
2018-01-13T02:27:14.009Z,67.02
2018-01-13T02:27:14.609Z,66.83
2018-01-13T02:27:15.211Z,67.30
2018-01-13T02:27:15.809Z,67.40
2018-01-13T02:27:16.407Z,67.02
2018-01-13T02:27:17.008Z,67.02
2018-01-13T02:28:10.489Z,67.68
2018-01-13T02:28:11.063Z,67.68
2018-01-13T02:28:11.660Z,67.77
2018-01-13T02:28:12.261Z,67.77
2018-01-13T02:28:12.862Z,67.77
2018-01-13T02:28:13.464Z,67.68
2018-01-13T02:28:14.063Z,67.77
2018-01-13T02:28:14.660Z,67.68
2018-01-13T02:29:08.141Z,68.25
2018-01-13T02:29:08.713Z,68.25
2018-01-13T02:29:09.313Z,68.15
2018-01-13T02:29:09.913Z,68.25
2018-01-13T02:29:10.512Z,68.35
2018-01-13T02:29:11.113Z,68.35
2018-01-13T02:29:11.713Z,68.35
2018-01-13T02:29:12.312Z,68.73
2018-01-13T02:30:05.883Z,68.73
2018-01-13T02:30:06.389Z,68.63
2018-01-13T02:30:06.987Z,68.91
2018-01-13T02:30:07.589Z,68.25
2018-01-13T02:30:08.186Z,68.63
2018-01-13T02:30:08.786Z,68.63
2018-01-13T02:30:09.386Z,68.63
2018-01-13T02:30:09.985Z,68.06
2018-01-13T02:31:03.555Z,68.82
2018-01-13T02:31:04.120Z,68.91
2018-01-13T02:31:04.721Z,69.29
2018-01-13T02:31:05.319Z,69.01
2018-01-13T02:31:05.919Z,69.29
2018-01-13T02:31:06.520Z,69.38
2018-01-13T02:31:07.119Z,68.91
2018-01-13T02:31:07.719Z,69.48
2018-01-13T02:32:01.199Z,69.20
2018-01-13T02:32:01.772Z,69.10
2018-01-13T02:32:02.370Z,69.01
2018-01-13T02:32:02.970Z,69.10
2018-01-13T02:32:03.577Z,69.29
2018-01-13T02:32:04.173Z,69.10
2018-01-13T02:32:04.771Z,69.10
2018-01-13T02:32:05.372Z,69.38
2018-01-13T02:32:59.875Z,70.24
2018-01-13T02:33:00.446Z,70.34
2018-01-13T02:33:01.046Z,70.15
2018-01-13T02:33:01.647Z,70.24
2018-01-13T02:33:02.244Z,70.15
2018-01-13T02:33:02.846Z,70.24
2018-01-13T02:33:03.446Z,70.24
2018-01-13T02:33:04.051Z,70.24
2018-01-13T02:33:57.576Z,70.90
2018-01-13T02:33:58.202Z,70.81
2018-01-13T02:33:58.698Z,70.81
2018-01-13T02:33:59.296Z,70.90
2018-01-13T02:33:59.895Z,70.81
2018-01-13T02:34:00.498Z,70.81
2018-01-13T02:34:01.096Z,71.00
2018-01-13T02:34:01.695Z,70.81
2018-01-13T02:52:35.844Z,66.54
2018-01-13T02:52:36.411Z,66.64
2018-01-13T02:52:37.013Z,66.64
2018-01-13T02:52:37.610Z,66.64
2018-01-13T02:52:38.212Z,66.54
2018-01-13T02:52:38.814Z,66.45
2018-01-13T02:52:39.409Z,66.54
2018-01-13T02:52:40.012Z,66.54
2018-01-13T02:53:33.494Z,66.16
2018-01-13T02:53:34.064Z,65.59
2018-01-13T02:53:34.664Z,65.50
2018-01-13T02:53:35.262Z,65.59
2018-01-13T02:53:35.863Z,65.69
2018-01-13T02:53:36.464Z,65.50
2018-01-13T02:53:37.063Z,65.88
2018-01-13T02:53:37.663Z,65.59
2018-01-13T02:54:32.168Z,64.65
2018-01-13T02:54:32.741Z,64.65
2018-01-13T02:54:33.339Z,64.65
2018-01-13T02:54:33.944Z,65.03
2018-01-13T02:54:34.540Z,64.93
2018-01-13T02:54:35.139Z,65.12
2018-01-13T02:54:35.800Z,65.12
2018-01-13T02:54:36.339Z,65.03
2018-01-13T02:55:30.866Z,64.93
2018-01-13T02:55:31.417Z,64.65
2018-01-13T02:55:32.016Z,65.03
2018-01-13T02:55:32.614Z,64.74
2018-01-13T02:55:33.215Z,64.74
2018-01-13T02:55:33.817Z,64.93
2018-01-13T02:55:34.414Z,64.84
2018-01-13T02:55:35.014Z,64.84
2018-01-13T02:56:29.527Z,64.36
2018-01-13T02:56:30.096Z,64.36
2018-01-13T02:56:30.691Z,64.36
2018-01-13T02:56:31.293Z,64.36
2018-01-13T02:56:31.891Z,64.27
2018-01-13T02:56:32.491Z,64.27
2018-01-13T02:56:33.091Z,64.46
2018-01-13T02:56:33.690Z,64.17
2018-01-13T02:57:28.198Z,64.17
2018-01-13T02:57:28.770Z,64.17
2018-01-13T02:57:29.368Z,64.17
2018-01-13T02:57:29.968Z,64.17
2018-01-13T02:57:30.567Z,64.17
2018-01-13T02:57:31.172Z,64.17
2018-01-13T02:57:31.766Z,64.17
2018-01-13T02:57:32.367Z,64.08
2018-01-13T02:58:25.849Z,63.70
2018-01-13T02:58:26.421Z,63.79
2018-01-13T02:58:27.020Z,63.70
2018-01-13T02:58:27.622Z,63.79
2018-01-13T02:58:28.220Z,63.60
2018-01-13T02:58:28.821Z,63.60
2018-01-13T02:58:29.419Z,63.70
2018-01-13T02:58:30.021Z,63.70
2018-01-13T02:59:24.525Z,62.94
2018-01-13T02:59:25.096Z,62.47
2018-01-13T02:59:25.697Z,62.94
2018-01-13T02:59:26.296Z,62.75
2018-01-13T02:59:26.895Z,62.47
2018-01-13T02:59:27.496Z,62.75
2018-01-13T02:59:28.096Z,62.91
2018-01-13T02:59:28.695Z,62.47
2018-01-13T03:00:22.687Z,62.72
2018-01-13T03:00:23.265Z,62.85
2018-01-13T03:00:23.863Z,62.66
2018-01-13T03:00:24.460Z,62.66
2018-01-13T03:00:25.060Z,62.75
2018-01-13T03:00:25.660Z,62.56
2018-01-13T03:00:26.262Z,62.85
2018-01-13T03:01:19.727Z,62.43
2018-01-13T03:01:20.300Z,62.34
2018-01-13T03:01:20.898Z,62.28
2018-01-13T03:01:21.496Z,62.28
2018-01-13T03:01:22.097Z,62.28
2018-01-13T03:01:22.697Z,62.28
2018-01-13T03:01:23.296Z,62.37
2018-01-13T03:01:23.899Z,62.28
2018-01-13T03:02:18.402Z,62.56
2018-01-13T03:02:18.977Z,62.05
2018-01-13T03:02:19.575Z,61.99
2018-01-13T03:02:20.194Z,62.56
2018-01-13T03:02:20.771Z,62.56
2018-01-13T03:02:21.372Z,62.08
2018-01-13T03:02:21.973Z,62.08
2018-01-13T03:02:22.570Z,62.08
2018-01-13T03:03:17.080Z,61.61
2018-01-13T03:03:17.648Z,61.52
2018-01-13T03:03:18.248Z,61.71
2018-01-13T03:03:18.848Z,61.52
2018-01-13T03:03:19.448Z,61.52
2018-01-13T03:03:20.076Z,61.43
2018-01-13T03:03:20.649Z,61.52
2018-01-13T03:03:21.247Z,61.52
2018-01-13T03:04:14.729Z,61.43
2018-01-13T03:04:15.300Z,61.80
2018-01-13T03:04:15.900Z,61.43
2018-01-13T03:04:16.502Z,61.43
2018-01-13T03:04:17.100Z,61.71
2018-01-13T03:04:17.699Z,61.71
2018-01-13T03:04:18.299Z,61.52
2018-01-13T03:04:18.899Z,61.52
2018-01-13T03:05:12.388Z,61.99
2018-01-13T03:05:12.958Z,61.90
2018-01-13T03:05:13.553Z,61.99
2018-01-13T03:05:14.153Z,61.52
2018-01-13T03:05:14.758Z,61.52
2018-01-13T03:05:15.355Z,61.71
2018-01-13T03:05:15.952Z,61.52
2018-01-13T03:05:16.552Z,61.43
2018-01-13T03:06:11.122Z,61.52
2018-01-13T03:06:11.631Z,61.52
2018-01-13T03:06:12.227Z,61.71
2018-01-13T03:06:12.827Z,61.71
2018-01-13T03:06:13.427Z,61.61
2018-01-13T03:06:14.027Z,61.90
2018-01-13T03:06:14.626Z,61.61
2018-01-13T03:06:15.226Z,61.71
2018-01-13T03:07:08.708Z,61.99
2018-01-13T03:07:09.290Z,61.71
2018-01-13T03:07:09.883Z,61.61
2018-01-13T03:07:10.480Z,61.61
2018-01-13T03:07:11.079Z,61.90
2018-01-13T03:07:11.679Z,61.71
2018-01-13T03:07:12.279Z,61.71
2018-01-13T03:07:12.879Z,61.80
2018-01-13T03:08:08.405Z,61.71
2018-01-13T03:08:08.979Z,61.80
2018-01-13T03:08:09.579Z,61.43
2018-01-13T03:08:10.178Z,61.71
2018-01-13T03:08:10.779Z,61.43
2018-01-13T03:08:11.379Z,61.52
2018-01-13T03:08:11.977Z,61.33
2018-01-13T03:08:12.578Z,61.90
2018-01-13T03:09:06.059Z,62.56
2018-01-13T03:09:06.632Z,62.56
2018-01-13T03:09:07.232Z,62.56
2018-01-13T03:09:07.833Z,62.56
2018-01-13T03:09:08.442Z,62.66
2018-01-13T03:09:09.032Z,62.66
2018-01-13T03:09:09.635Z,62.75
2018-01-13T03:09:10.231Z,62.66
2018-01-13T03:10:04.736Z,62.47
2018-01-13T03:10:06.263Z,62.56
2018-01-13T03:10:06.789Z,62.47
2018-01-13T03:10:07.381Z,62.75
2018-01-13T03:10:07.977Z,62.85
2018-01-13T03:10:08.568Z,62.56
2018-01-13T03:10:09.168Z,62.66
2018-01-13T03:11:03.205Z,62.47
2018-01-13T03:11:03.779Z,62.85
2018-01-13T03:11:04.381Z,62.94
2018-01-13T03:11:05.027Z,62.85
2018-01-13T03:11:05.608Z,62.85
2018-01-13T03:11:06.178Z,62.56
2018-01-13T03:11:06.780Z,62.85
2018-01-13T03:11:07.377Z,62.47
2018-01-13T03:12:00.859Z,62.37
2018-01-13T03:12:01.429Z,62.85
2018-01-13T03:12:02.029Z,62.75
2018-01-13T03:12:02.630Z,62.75
2018-01-13T03:12:03.229Z,62.75
2018-01-13T03:12:03.830Z,62.85
2018-01-13T03:12:04.432Z,62.94
2018-01-13T03:12:05.030Z,62.94
2018-01-13T03:13:00.046Z,62.75
2018-01-13T03:13:00.623Z,62.75
2018-01-13T03:13:01.216Z,62.66
2018-01-13T03:13:01.816Z,62.66
2018-01-13T03:13:02.416Z,62.66
2018-01-13T03:13:03.018Z,62.66
2018-01-13T03:13:57.491Z,62.75
2018-01-13T03:13:58.063Z,62.75
2018-01-13T03:13:58.660Z,62.75
2018-01-13T03:13:59.263Z,62.85
2018-01-13T03:13:59.862Z,62.85
2018-01-13T03:14:00.602Z,62.94
2018-01-13T03:14:01.089Z,62.85
2018-01-13T03:15:14.602Z,64.17
2018-01-13T03:15:15.174Z,64.46
2018-01-13T03:15:15.773Z,64.17
2018-01-13T03:15:16.371Z,64.46
2018-01-13T03:15:16.979Z,64.17
2018-01-13T03:15:17.571Z,64.36
2018-01-13T03:15:18.171Z,64.46
2018-01-13T03:15:18.771Z,64.36
2018-01-13T03:16:12.771Z,64.65
2018-01-13T03:16:13.340Z,64.74
2018-01-13T03:16:13.934Z,64.84
2018-01-13T03:16:14.535Z,64.74
2018-01-13T03:16:15.133Z,64.84
2018-01-13T03:16:15.734Z,64.84
2018-01-13T03:16:16.335Z,64.93
2018-01-13T03:17:09.802Z,65.50
2018-01-13T03:17:10.373Z,65.03
2018-01-13T03:17:10.973Z,65.50
2018-01-13T03:17:11.572Z,65.50
2018-01-13T03:17:12.172Z,65.41
2018-01-13T03:17:12.773Z,65.41
2018-01-13T03:17:13.373Z,65.41
2018-01-13T03:17:13.973Z,65.41
2018-01-13T03:18:07.465Z,65.50
2018-01-13T03:18:08.027Z,65.50
2018-01-13T03:18:08.626Z,65.50
2018-01-13T03:18:09.228Z,65.50
2018-01-13T03:18:09.826Z,65.50
2018-01-13T03:18:10.426Z,65.50
2018-01-13T03:18:11.026Z,65.50
2018-01-13T03:18:11.623Z,65.41
2018-01-13T03:19:05.206Z,65.41
2018-01-13T03:19:05.780Z,65.41
2018-01-13T03:19:06.379Z,65.41
2018-01-13T03:19:06.978Z,65.41
2018-01-13T03:19:07.582Z,65.41
2018-01-13T03:19:08.185Z,65.31
2018-01-13T03:19:08.956Z,65.41
2018-01-13T03:19:09.374Z,65.31
2018-01-13T03:20:03.882Z,65.41
2018-01-13T03:20:04.455Z,65.78
2018-01-13T03:20:05.053Z,65.78
2018-01-13T03:20:05.657Z,66.16
2018-01-13T03:20:06.252Z,65.78
2018-01-13T03:20:06.853Z,65.59
2018-01-13T03:20:07.454Z,65.69
2018-01-13T03:20:08.053Z,65.41
2018-01-13T03:21:01.639Z,65.59
2018-01-13T03:21:02.138Z,65.88
2018-01-13T03:21:02.737Z,65.88
2018-01-13T03:21:03.336Z,65.88
2018-01-13T03:21:03.936Z,65.69
2018-01-13T03:21:04.536Z,65.97
2018-01-13T03:21:05.140Z,65.88
2018-01-13T03:21:05.736Z,65.88
2018-01-13T03:21:59.290Z,66.16
2018-01-13T03:21:59.861Z,66.16
2018-01-13T03:22:00.461Z,66.07
2018-01-13T03:22:01.062Z,65.97
2018-01-13T03:22:01.665Z,65.97
2018-01-13T03:22:02.260Z,66.16
2018-01-13T03:22:02.893Z,66.64
2018-01-13T03:22:03.460Z,66.07
2018-01-13T03:22:56.939Z,66.45
2018-01-13T03:22:57.512Z,66.54
2018-01-13T03:22:58.112Z,66.54
2018-01-13T03:22:58.712Z,66.54
2018-01-13T03:22:59.315Z,66.64
2018-01-13T03:22:59.911Z,66.54
2018-01-13T03:23:00.512Z,66.54
2018-01-13T03:23:01.111Z,66.54
2018-01-13T03:23:55.627Z,67.11
2018-01-13T03:23:56.187Z,67.11
2018-01-13T03:23:56.787Z,67.30
2018-01-13T03:23:57.386Z,67.21
2018-01-13T03:23:57.992Z,67.11
2018-01-13T03:23:58.586Z,67.21
2018-01-13T03:23:59.186Z,67.11
2018-01-13T03:23:59.785Z,67.21
2018-01-13T03:24:53.270Z,67.68
2018-01-13T03:24:53.840Z,67.68
2018-01-13T03:24:54.439Z,67.68
2018-01-13T03:24:55.038Z,67.77
2018-01-13T03:24:55.640Z,67.68
2018-01-13T03:24:56.240Z,67.68
2018-01-13T03:24:56.837Z,67.68
2018-01-13T03:24:57.439Z,67.58
2018-01-13T03:25:51.942Z,67.96
2018-01-13T03:25:52.515Z,67.87
2018-01-13T03:25:53.117Z,67.96
2018-01-13T03:25:53.715Z,68.15
2018-01-13T03:25:54.317Z,67.96
2018-01-13T03:25:54.912Z,67.87
2018-01-13T03:25:55.513Z,67.87
2018-01-13T03:25:56.113Z,67.96
2018-01-13T03:26:49.603Z,68.06
2018-01-13T03:26:50.210Z,68.15
2018-01-13T03:26:50.786Z,68.06
2018-01-13T03:26:51.383Z,68.06
2018-01-13T03:26:51.985Z,68.25
2018-01-13T03:26:53.148Z,68.25
2018-01-13T03:26:53.648Z,68.06
2018-01-13T03:28:06.499Z,67.96
2018-01-13T03:28:07.070Z,67.96
2018-01-13T03:28:07.675Z,67.96
2018-01-13T03:28:08.269Z,68.15
2018-01-13T03:28:08.868Z,67.87
2018-01-13T03:28:09.598Z,68.15
2018-01-13T03:28:10.076Z,67.96
2018-01-13T03:28:10.674Z,67.87
2018-01-13T03:29:05.174Z,67.77
2018-01-13T03:29:05.745Z,67.68
2018-01-13T03:29:06.343Z,67.77
2018-01-13T03:29:06.944Z,67.77
2018-01-13T03:29:07.545Z,67.77
2018-01-13T03:29:08.145Z,67.77
2018-01-13T03:29:08.744Z,67.58
2018-01-13T03:29:09.358Z,67.77